Time;durP1;ratioP1;P1;durP2;ratioP2;P2;SDS_P1;SDS_P2;PMS_P1;PMS_P2;Temp;Humidity;BMP_temperature;BMP_pressure;BME280_temperature;BME280_humidity;BME280_pressure;Samples;Min_cycle;Max_cycle;Signal;HPM_P1;HPM_P2
2021/03/26 00:01:21;;;;;;;75.07;30.75;;;8.90;99.90;;;;;;4985901;28;20109;-77
2021/03/26 00:03:50;;;;;;;69.95;29.75;;;8.80;99.90;;;;;;4985399;28;20035;-77
2021/03/26 00:06:20;;;;;;;68.68;30.52;;;8.80;99.90;;;;;;4978477;28;20053;-77
2021/03/26 00:08:46;;;;;;;72.72;30.95;;;8.70;99.90;;;;;;4982232;28;20050;-77
2021/03/26 00:11:14;;;;;;;66.60;30.02;;;8.70;99.90;;;;;;4981380;28;20477;-77
2021/03/26 00:13:41;;;;;;;68.80;30.35;;;8.70;99.90;;;;;;4986188;28;20042;-77
2021/03/26 00:16:10;;;;;;;68.93;32.15;;;8.60;99.90;;;;;;4988053;28;20477;-77
2021/03/26 00:18:37;;;;;;;66.55;31.38;;;8.60;99.90;;;;;;4988367;28;20038;-77
2021/03/26 00:21:09;;;;;;;66.03;30.27;;;8.60;99.90;;;;;;4987791;28;20065;-76
2021/03/26 00:23:35;;;;;;;69.65;31.65;;;8.60;99.90;;;;;;4983225;28;20039;-77
2021/03/26 00:26:01;;;;;;;65.72;28.92;;;8.60;99.90;;;;;;4989763;28;20421;-77
2021/03/26 00:28:31;;;;;;;79.43;32.25;;;8.50;99.90;;;;;;4983866;28;20069;-76
2021/03/26 00:30:59;;;;;;;71.15;31.35;;;8.50;99.90;;;;;;4983451;28;20034;-77
2021/03/26 00:33:28;;;;;;;70.88;30.75;;;8.50;99.90;;;;;;4988478;28;20101;-76
2021/03/26 00:35:54;;;;;;;71.25;32.45;;;8.50;99.90;;;;;;4985964;28;20665;-77
2021/03/26 00:38:21;;;;;;;69.78;31.50;;;8.50;99.90;;;;;;4986071;28;20050;-77
2021/03/26 00:40:47;;;;;;;66.15;29.75;;;8.50;99.90;;;;;;4979064;28;20053;-77
2021/03/26 00:43:12;;;;;;;70.88;32.30;;;8.40;99.90;;;;;;4988103;28;20034;-77
2021/03/26 00:45:38;;;;;;;71.28;31.95;;;8.30;99.90;;;;;;4983406;28;20125;-77
2021/03/26 00:48:05;;;;;;;71.05;31.50;;;8.20;99.90;;;;;;4986258;28;20038;-77
2021/03/26 00:50:32;;;;;;;73.18;31.13;;;8.30;99.90;;;;;;4983878;28;20045;-76
2021/03/26 00:53:04;;;;;;;67.00;31.73;;;8.20;99.90;;;;;;4985787;28;20030;-77
2021/03/26 00:55:33;;;;;;;65.80;29.23;;;8.30;99.90;;;;;;4984174;28;20124;-77
2021/03/26 00:57:58;;;;;;;67.00;31.25;;;8.20;99.90;;;;;;4982482;28;20174;-77
2021/03/26 01:00:26;;;;;;;76.45;31.83;;;8.20;99.90;;;;;;4970353;28;20133;-77
2021/03/26 01:02:52;;;;;;;70.03;31.48;;;8.10;99.90;;;;;;4981009;28;20037;-76
2021/03/26 01:05:29;;;;;;;73.82;32.25;;;8.00;99.90;;;;;;4979918;28;20022;-77
2021/03/26 01:07:55;;;;;;;64.82;30.20;;;8.00;99.90;;;;;;4983469;28;20026;-77
2021/03/26 01:10:25;;;;;;;69.70;31.65;;;8.00;99.90;;;;;;4980431;28;20473;-76
2021/03/26 01:12:51;;;;;;;67.40;29.38;;;8.00;99.90;;;;;;4985788;28;20026;-76
2021/03/26 01:15:26;;;;;;;69.03;30.20;;;8.00;99.90;;;;;;4983479;28;20034;-77
2021/03/26 01:17:53;;;;;;;69.15;31.38;;;8.00;99.90;;;;;;4985907;28;20080;-76
2021/03/26 01:20:28;;;;;;;70.75;33.22;;;8.00;99.90;;;;;;4987111;28;20030;-77
2021/03/26 01:22:54;;;;;;;74.25;32.80;;;8.00;99.90;;;;;;4985807;28;20662;-77
2021/03/26 01:25:26;;;;;;;72.07;32.35;;;8.00;99.90;;;;;;4980448;28;20119;-76
2021/03/26 01:27:52;;;;;;;72.22;30.60;;;8.00;99.90;;;;;;4980580;28;20117;-76
2021/03/26 01:30:22;;;;;;;68.22;30.42;;;8.00;99.90;;;;;;4984137;28;20502;-78
2021/03/26 01:32:48;;;;;;;77.05;32.72;;;8.10;99.90;;;;;;4980606;28;20058;-77
2021/03/26 01:35:14;;;;;;;75.88;32.22;;;8.10;99.90;;;;;;4988594;28;20074;-77
2021/03/26 01:37:40;;;;;;;74.38;32.97;;;8.10;99.90;;;;;;4983581;28;20115;-76
2021/03/26 01:40:13;;;;;;;71.80;32.53;;;8.10;99.90;;;;;;4976992;28;20107;-77
2021/03/26 01:42:40;;;;;;;74.55;31.95;;;8.20;99.90;;;;;;4980055;28;20055;-77
2021/03/26 01:45:19;;;;;;;69.47;31.33;;;8.30;99.90;;;;;;4983144;28;20034;-76
2021/03/26 01:47:45;;;;;;;73.18;32.38;;;8.30;99.90;;;;;;4979018;28;20046;-77
2021/03/26 01:50:13;;;;;;;73.45;33.20;;;8.30;99.90;;;;;;4981993;28;20465;-76
2021/03/26 01:52:40;;;;;;;72.10;31.80;;;8.30;99.90;;;;;;4981222;28;20078;-76
2021/03/26 01:55:09;;;;;;;76.03;32.95;;;8.20;99.90;;;;;;4973635;28;20069;-78
2021/03/26 01:57:35;;;;;;;83.32;33.25;;;8.20;99.90;;;;;;4978853;28;20109;-77
2021/03/26 02:00:03;;;;;;;81.82;34.40;;;8.30;99.90;;;;;;4981678;28;20057;-78
2021/03/26 02:02:29;;;;;;;76.40;32.15;;;8.30;99.90;;;;;;4982140;28;20035;-77
2021/03/26 02:04:54;;;;;;;73.93;33.25;;;8.30;99.90;;;;;;4977370;28;20367;-77
2021/03/26 02:07:21;;;;;;;71.80;33.70;;;8.30;99.90;;;;;;4978618;28;20022;-77
2021/03/26 02:09:47;;;;;;;76.78;33.08;;;8.30;99.90;;;;;;4987688;28;20110;-77
2021/03/26 02:12:28;;;;;;;75.72;33.22;;;8.30;99.90;;;;;;4976909;28;20110;-77
2021/03/26 02:15:02;;;;;;;72.30;32.33;;;8.30;99.90;;;;;;4985543;28;20027;-77
2021/03/26 02:17:31;;;;;;;78.70;32.55;;;8.40;99.90;;;;;;4982436;28;20501;-77
2021/03/26 02:20:24;;;;;;;77.72;33.17;;;8.30;99.90;;;;;;4978351;28;20030;-77
2021/03/26 02:22:51;;;;;;;73.40;31.58;;;8.30;99.90;;;;;;4975641;28;20062;-77
2021/03/26 02:25:23;;;;;;;70.95;33.20;;;8.30;99.90;;;;;;4982421;28;20038;-77
2021/03/26 02:27:48;;;;;;;;;;;8.30;99.90;;;;;;4982695;28;20035;-77
2021/03/26 02:30:24;;;;;;;77.35;30.17;;;8.30;99.90;;;;;;4979906;28;19914;-77
2021/03/26 02:32:50;;;;;;;74.45;32.85;;;8.30;99.90;;;;;;4987429;28;20038;-77
2021/03/26 02:35:36;;;;;;;68.90;30.27;;;8.20;99.90;;;;;;4988446;28;20101;-77
2021/03/26 02:38:10;;;;;;;71.07;32.03;;;8.30;99.90;;;;;;4979038;28;20547;-77
2021/03/26 02:40:48;;;;;;;71.35;32.10;;;8.20;99.90;;;;;;4989087;28;20041;-77
2021/03/26 02:43:38;;;;;;;70.80;31.42;;;8.10;99.90;;;;;;4980325;28;20034;-77
2021/03/26 02:46:20;;;;;;;78.28;31.67;;;8.10;99.90;;;;;;4981765;28;20065;-77
2021/03/26 02:49:05;;;;;;;69.00;31.33;;;8.10;99.90;;;;;;4977373;28;20485;-77
2021/03/26 02:51:38;;;;;;;79.65;32.28;;;8.10;99.90;;;;;;4991266;28;20029;-77
2021/03/26 02:54:41;;;;;;;71.93;32.08;;;8.00;99.90;;;;;;4990458;28;20030;-77
2021/03/26 02:57:23;;;;;;;69.40;31.40;;;8.00;99.90;;;;;;4987874;28;20026;-77
2021/03/26 02:59:56;;;;;;;75.05;32.83;;;8.00;99.90;;;;;;4984440;28;20035;-77
2021/03/26 03:02:23;;;;;;;76.22;32.50;;;8.00;99.90;;;;;;4984185;28;20097;-77
2021/03/26 03:04:49;;;;;;;65.05;29.02;;;8.00;99.90;;;;;;4982290;28;20122;-78
2021/03/26 03:07:25;;;;;;;70.13;31.85;;;8.00;99.90;;;;;;4986533;28;20109;-76
2021/03/26 03:09:56;;;;;;;74.63;31.95;;;8.00;99.90;;;;;;4987790;28;20516;-77
2021/03/26 03:12:35;;;;;;;74.57;32.20;;;8.00;99.90;;;;;;4983987;28;20027;-77
2021/03/26 03:15:07;;;;;;;69.05;31.45;;;8.00;99.90;;;;;;4980073;28;20038;-77
2021/03/26 03:17:44;;;;;;;73.28;31.73;;;8.00;99.90;;;;;;4988455;28;20015;-77
2021/03/26 03:20:18;;;;;;;69.75;31.02;;;8.00;99.90;;;;;;4987422;28;20038;-76
2021/03/26 03:22:58;;;;;;;73.70;32.47;;;8.10;99.90;;;;;;4986766;28;20029;-76
2021/03/26 03:25:26;;;;;;;69.60;31.27;;;8.10;99.90;;;;;;4986641;28;20118;-77
2021/03/26 03:28:07;;;;;;;76.75;33.03;;;8.10;99.90;;;;;;4989553;28;20565;-78
2021/03/26 03:30:46;;;;;;;;;;;8.10;99.90;;;;;;4983373;28;20639;-75
2021/03/26 03:33:35;;;;;;;72.90;31.55;;;8.00;99.90;;;;;;4988912;28;20361;-76
2021/03/26 03:36:09;;;;;;;70.63;31.55;;;8.00;99.90;;;;;;4988555;28;20494;-76
2021/03/26 03:38:54;;;;;;;73.32;32.80;;;8.10;99.90;;;;;;4978884;28;20038;-76
2021/03/26 03:41:27;;;;;;;71.20;32.53;;;8.20;99.90;;;;;;4987702;28;20038;-77
2021/03/26 03:44:24;;;;;;;76.38;31.60;;;8.10;99.90;;;;;;4986162;28;20034;-78
2021/03/26 03:47:14;;;;;;;73.80;31.35;;;8.20;99.90;;;;;;4967088;28;20414;-78
2021/03/26 03:49:52;;;;;;;70.40;31.08;;;8.20;99.90;;;;;;4979670;28;20113;-77
2021/03/26 03:52:35;;;;;;;79.45;33.60;;;8.20;99.90;;;;;;4977695;28;20042;-77
2021/03/26 03:55:19;;;;;;;74.68;31.48;;;8.20;99.90;;;;;;4985792;28;20125;-77
2021/03/26 03:58:04;;;;;;;72.85;31.70;;;8.30;99.90;;;;;;4986685;28;20477;-76
2021/03/26 04:00:45;;;;;;;64.32;31.17;;;8.30;99.90;;;;;;4983155;28;20026;-78
2021/03/26 04:03:17;;;;;;;;;;;8.20;99.90;;;;;;4983557;28;20159;-76
2021/03/26 04:06:01;;;;;;;71.05;30.13;;;8.10;99.90;;;;;;4981647;28;19965;-77
2021/03/26 04:08:33;;;;;;;77.68;30.80;;;8.20;99.90;;;;;;4983954;28;20034;-76
2021/03/26 04:11:34;;;;;;;59.40;28.88;;;8.20;99.90;;;;;;4986320;28;20450;-76
2021/03/26 04:14:19;;;;;;;64.55;28.75;;;8.30;99.90;;;;;;4985062;28;20049;-76
2021/03/26 04:16:52;;;;;;;71.28;29.90;;;8.30;99.90;;;;;;4965353;28;20152;-77
2021/03/26 04:19:41;;;;;;;69.45;30.63;;;8.40;99.90;;;;;;4981656;28;20476;-76
2021/03/26 04:22:10;;;;;;;63.22;29.20;;;8.40;99.90;;;;;;4985960;28;20394;-76
2021/03/26 04:24:44;;;;;;;62.63;29.45;;;8.30;99.90;;;;;;4984044;28;20026;-76
2021/03/26 04:27:33;;;;;;;61.40;28.77;;;8.20;99.90;;;;;;4983649;28;20026;-76
2021/03/26 04:30:26;;;;;;;61.60;29.13;;;8.30;99.90;;;;;;4982212;28;20018;-76
2021/03/26 04:32:54;;;;;;;68.75;29.05;;;8.40;99.90;;;;;;4980928;28;20046;-76
2021/03/26 04:35:20;;;;;;;64.97;29.23;;;8.40;99.90;;;;;;4987591;28;20035;-75
2021/03/26 04:37:51;;;;;;;70.05;29.15;;;8.30;99.90;;;;;;4988203;28;20033;-76
2021/03/26 04:40:24;;;;;;;;;;;8.20;99.90;;;;;;4987741;28;20026;-76
2021/03/26 04:43:11;;;;;;;55.33;26.08;;;8.30;99.90;;;;;;4987796;28;19916;-76
2021/03/26 04:45:57;;;;;;;61.65;26.60;;;8.20;99.90;;;;;;4979042;28;20429;-78
2021/03/26 04:48:37;;;;;;;62.97;27.80;;;8.20;99.90;;;;;;4988320;28;20514;-77
2021/03/26 04:51:09;;;;;;;63.92;26.65;;;8.20;99.90;;;;;;4986304;28;20054;-78
2021/03/26 04:54:02;;;;;;;52.90;25.73;;;8.20;99.90;;;;;;4977774;28;20030;-78
2021/03/26 04:56:32;;;;;;;59.67;26.65;;;8.30;99.90;;;;;;4987543;28;20856;-78
2021/03/26 04:59:01;;;;;;;57.83;26.23;;;8.30;99.90;;;;;;4988380;28;20034;-77
2021/03/26 05:01:29;;;;;;;63.10;26.92;;;8.30;99.90;;;;;;4985076;28;20031;-78
2021/03/26 05:04:07;;;;;;;57.33;26.23;;;8.30;99.90;;;;;;4985682;28;20039;-76
2021/03/26 05:06:40;;;;;;;66.68;27.17;;;8.20;99.90;;;;;;4984006;28;20030;-75
2021/03/26 05:09:11;;;;;;;67.50;28.52;;;8.20;99.90;;;;;;4979587;28;20038;-76
2021/03/26 05:11:41;;;;;;;59.83;27.30;;;8.30;99.90;;;;;;4985576;28;20025;-76
2021/03/26 05:14:15;;;;;;;61.25;26.90;;;8.30;99.90;;;;;;4982814;28;20829;-76
2021/03/26 05:16:43;;;;;;;60.95;26.92;;;8.30;99.90;;;;;;4988378;28;20030;-76
2021/03/26 05:19:23;;;;;;;66.63;26.85;;;8.30;99.90;;;;;;4984989;28;20071;-76
2021/03/26 05:22:28;;;;;;;59.65;26.52;;;8.30;99.90;;;;;;4979232;28;20046;-76
2021/03/26 05:25:01;;;;;;;54.03;25.90;;;8.30;99.90;;;;;;4944748;28;20050;-76
2021/03/26 05:27:26;;;;;;;61.35;26.35;;;8.40;99.90;;;;;;4983098;28;20109;-76
2021/03/26 05:29:52;;;;;;;59.55;27.52;;;8.50;99.90;;;;;;4985914;28;20129;-76
2021/03/26 05:32:37;;;;;;;59.10;26.80;;;8.60;99.90;;;;;;4974491;28;20058;-77
2021/03/26 05:35:08;;;;;;;67.15;28.85;;;8.70;99.90;;;;;;4984633;28;20031;-77
2021/03/26 05:37:46;;;;;;;67.53;27.92;;;8.70;99.90;;;;;;4982211;28;20379;-76
2021/03/26 05:40:39;;;;;;;65.07;28.42;;;8.70;99.90;;;;;;4979911;28;20494;-76
2021/03/26 05:43:35;;;;;;;62.40;28.27;;;8.80;99.90;;;;;;4985722;28;20041;-77
2021/03/26 05:46:28;;;;;;;54.15;26.10;;;8.80;99.90;;;;;;4985658;28;20573;-76
2021/03/26 05:49:18;;;;;;;63.95;28.58;;;8.70;99.90;;;;;;4985005;28;21468;-76
2021/03/26 05:52:01;;;;;;;62.47;28.05;;;8.70;99.90;;;;;;4982129;28;20022;-76
2021/03/26 05:54:57;;;;;;;62.25;27.08;;;8.80;99.90;;;;;;4987835;28;20038;-76
2021/03/26 05:57:43;;;;;;;58.60;27.55;;;8.60;99.90;;;;;;4957436;28;20118;-77
2021/03/26 06:00:45;;;;;;;67.68;29.42;;;8.60;99.90;;;;;;4986791;28;20121;-76
2021/03/26 06:03:45;;;;;;;59.35;26.90;;;8.70;99.90;;;;;;4987056;28;20490;-76
2021/03/26 06:06:32;;;;;;;64.85;28.63;;;8.70;99.90;;;;;;4987653;28;20069;-76
2021/03/26 06:09:35;;;;;;;68.32;30.27;;;8.80;99.90;;;;;;4986547;28;20026;-77
2021/03/26 06:12:38;;;;;;;68.30;29.63;;;8.70;99.90;;;;;;4988539;28;20077;-76
2021/03/26 06:15:39;;;;;;;65.97;29.17;;;8.90;99.90;;;;;;4989414;28;20559;-76
2021/03/26 06:18:21;;;;;;;63.77;27.60;;;8.90;99.90;;;;;;4991193;28;20118;-76
2021/03/26 06:21:12;;;;;;;69.47;30.75;;;8.90;99.90;;;;;;4990610;28;20110;-77
2021/03/26 06:23:40;;;;;;;62.20;29.02;;;8.80;99.90;;;;;;4983226;28;20023;-76
2021/03/26 06:26:44;;;;;;;66.13;29.17;;;8.80;99.90;;;;;;4990403;28;20019;-76
2021/03/26 06:29:42;;;;;;;64.03;28.80;;;8.90;99.90;;;;;;4983411;28;20026;-76
2021/03/26 06:32:28;;;;;;;61.95;27.92;;;9.00;99.90;;;;;;4979204;28;20027;-76
2021/03/26 06:35:32;;;;;;;71.93;30.30;;;9.10;99.90;;;;;;4985344;28;20120;-77
2021/03/26 06:38:34;;;;;;;58.53;28.05;;;9.20;99.90;;;;;;4984757;28;20031;-78
2021/03/26 06:41:41;;;;;;;66.32;28.80;;;9.10;99.90;;;;;;4987105;28;20508;-77
2021/03/26 06:44:25;;;;;;;64.13;29.20;;;9.10;99.90;;;;;;4986039;28;20044;-77
2021/03/26 06:47:06;;;;;;;58.63;29.05;;;9.20;99.90;;;;;;4981426;28;20662;-77
2021/03/26 06:49:59;;;;;;;63.95;29.38;;;9.20;99.90;;;;;;4987298;28;20109;-77
2021/03/26 06:52:58;;;;;;;64.35;30.65;;;9.30;99.90;;;;;;4978488;28;20486;-77
2021/03/26 06:55:37;;;;;;;64.13;29.20;;;9.50;99.90;;;;;;4979804;28;20093;-76
2021/03/26 06:58:33;;;;;;;77.45;33.20;;;9.60;99.90;;;;;;4988506;28;20543;-76
2021/03/26 07:01:20;;;;;;;61.15;28.33;;;9.60;99.90;;;;;;4987737;28;20406;-78
2021/03/26 07:04:06;;;;;;;67.32;28.95;;;9.70;99.90;;;;;;4981749;28;20034;-77
2021/03/26 07:06:55;;;;;;;67.90;31.90;;;9.70;99.90;;;;;;4982342;28;20033;-78
2021/03/26 07:09:53;;;;;;;59.05;28.60;;;9.70;99.90;;;;;;4987312;28;20114;-76
2021/03/26 07:12:34;;;;;;;61.17;30.17;;;9.80;99.90;;;;;;4975582;28;20089;-83
2021/03/26 07:15:06;;;;;;;70.05;30.38;;;9.90;99.90;;;;;;4983974;28;20129;-80
2021/03/26 07:18:09;;;;;;;61.88;29.50;;;10.00;99.90;;;;;;4983399;28;20035;-77
2021/03/26 07:21:00;;;;;;;83.90;30.33;;;10.00;99.90;;;;;;4971548;28;20071;-80
2021/03/26 07:24:22;;;;;;;70.38;29.65;;;10.10;99.90;;;;;;4984529;28;20045;-86
2021/03/26 07:27:14;;;;;;;67.05;29.23;;;10.20;99.90;;;;;;4899021;29;20036;-83
2021/03/26 07:29:58;;;;;;;;;;;10.20;99.90;;;;;;4901126;29;20032;-76
2021/03/26 07:32:51;;;;;;;64.70;26.80;;;10.30;99.90;;;;;;4968976;28;19980;-77
2021/03/26 07:35:47;;;;;;;69.90;31.02;;;10.30;99.90;;;;;;4977117;28;20034;-77
2021/03/26 07:38:50;;;;;;;67.40;29.77;;;10.40;99.90;;;;;;4976005;28;20444;-76
2021/03/26 07:41:37;;;;;;;71.90;30.27;;;10.40;99.90;;;;;;4970333;28;20034;-77
2021/03/26 07:44:38;;;;;;;72.38;31.38;;;10.40;99.90;;;;;;4980677;28;20503;-77
2021/03/26 07:47:36;;;;;;;67.63;29.33;;;10.40;99.90;;;;;;4979963;28;20038;-76
2021/03/26 07:50:05;;;;;;;73.07;29.92;;;10.50;99.90;;;;;;4975910;28;20512;-76
2021/03/26 07:52:59;;;;;;;70.38;31.00;;;10.50;99.90;;;;;;4976835;28;20551;-77
2021/03/26 07:55:37;;;;;;;69.85;32.35;;;10.60;99.90;;;;;;4974154;28;20145;-77
2021/03/26 07:58:36;;;;;;;68.00;30.85;;;10.90;99.90;;;;;;4978217;28;20026;-77
2021/03/26 08:01:06;;;;;;;70.63;30.48;;;11.10;99.90;;;;;;4974665;28;20030;-77
2021/03/26 08:04:19;;;;;;;66.72;30.10;;;11.30;99.90;;;;;;4978986;28;20448;-77
2021/03/26 08:07:28;;;;;;;70.57;31.25;;;11.40;99.90;;;;;;4965257;28;20046;-76
2021/03/26 08:10:27;;;;;;;74.18;30.88;;;11.40;99.90;;;;;;4977130;28;20037;-77
2021/03/26 08:13:11;;;;;;;67.03;28.88;;;11.60;99.90;;;;;;4979769;28;20092;-76
2021/03/26 08:16:09;;;;;;;64.85;29.65;;;11.70;99.90;;;;;;4983399;28;20026;-76
2021/03/26 08:19:11;;;;;;;64.05;29.23;;;11.80;99.90;;;;;;4982225;28;20038;-75
2021/03/26 08:22:03;;;;;;;68.97;31.25;;;11.90;99.90;;;;;;4980698;28;21232;-76
2021/03/26 08:24:44;;;;;;;64.88;28.92;;;12.00;99.90;;;;;;4981840;28;20046;-76
2021/03/26 08:27:13;;;;;;;59.70;27.52;;;12.10;99.90;;;;;;4977371;28;20053;-76
2021/03/26 08:29:42;;;;;;;69.68;28.88;;;12.10;99.90;;;;;;4977758;28;20025;-78
2021/03/26 08:32:27;;;;;;;62.47;28.73;;;12.00;99.90;;;;;;4982149;28;20069;-75
2021/03/26 08:35:29;;;;;;;63.00;28.38;;;12.00;99.90;;;;;;4979057;28;20565;-78
2021/03/26 08:38:07;;;;;;;64.32;28.70;;;12.00;99.90;;;;;;4979181;28;20074;-75
2021/03/26 08:40:43;;;;;;;67.43;28.00;;;11.90;99.90;;;;;;4982602;28;20030;-75
2021/03/26 08:43:10;;;;;;;58.90;27.50;;;12.00;99.90;;;;;;4977553;28;20026;-75
2021/03/26 08:45:40;;;;;;;67.53;27.85;;;11.90;99.90;;;;;;4979509;28;20033;-74
2021/03/26 08:48:28;;;;;;;62.45;28.85;;;11.90;99.90;;;;;;4975567;28;20022;-74
2021/03/26 08:51:12;;;;;;;61.95;28.80;;;12.00;99.90;;;;;;4979012;28;20035;-76
2021/03/26 08:54:11;;;;;;;68.65;27.40;;;12.00;99.90;;;;;;4982020;28;20159;-76
2021/03/26 08:57:10;;;;;;;62.85;28.10;;;12.10;99.90;;;;;;4983144;28;20058;-76
2021/03/26 08:59:43;;;;;;;59.85;26.70;;;12.20;99.90;;;;;;4976923;28;20116;-76
2021/03/26 09:02:30;;;;;;;61.00;26.55;;;12.20;99.90;;;;;;4972020;28;20430;-75
2021/03/26 09:05:16;;;;;;;67.80;27.63;;;12.30;99.90;;;;;;4975184;28;20501;-75
2021/03/26 09:07:57;;;;;;;60.58;27.20;;;12.30;99.90;;;;;;4975202;28;20045;-76
2021/03/26 09:10:39;;;;;;;57.80;26.55;;;12.40;99.90;;;;;;4981243;28;20018;-74
2021/03/26 09:13:17;;;;;;;59.45;25.42;;;12.50;99.90;;;;;;4976422;28;20537;-76
2021/03/26 09:16:02;;;;;;;58.80;26.00;;;12.50;99.90;;;;;;4979995;28;20077;-76
2021/03/26 09:18:45;;;;;;;68.78;27.00;;;12.60;99.90;;;;;;4975503;28;20575;-75
2021/03/26 09:21:40;;;;;;;66.63;25.88;;;12.70;99.90;;;;;;4975449;28;20545;-76
2021/03/26 09:24:18;;;;;;;56.28;25.50;;;12.80;99.90;;;;;;4976868;28;20027;-76
2021/03/26 09:26:56;;;;;;;58.67;26.30;;;12.90;99.90;;;;;;4980209;28;20030;-76
2021/03/26 09:29:31;;;;;;;62.30;26.48;;;13.10;99.90;;;;;;4979941;28;20038;-76
2021/03/26 09:32:11;;;;;;;63.78;27.55;;;13.30;99.90;;;;;;4975386;28;20034;-83
2021/03/26 09:34:44;;;;;;;60.58;27.65;;;13.40;99.90;;;;;;4984386;28;20034;-78
2021/03/26 09:37:42;;;;;;;60.53;27.13;;;13.60;99.90;;;;;;4977490;28;20060;-79
2021/03/26 09:40:19;;;;;;;55.00;27.48;;;13.80;99.90;;;;;;4977768;28;20084;-81
2021/03/26 09:43:04;;;;;;;62.70;26.90;;;14.00;99.90;;;;;;4967790;28;20101;-78
2021/03/26 09:45:56;;;;;;;62.70;26.08;;;14.10;99.90;;;;;;4976660;28;20034;-86
2021/03/26 09:48:44;;;;;;;61.83;27.63;;;14.10;99.90;;;;;;4931366;28;20050;-76
2021/03/26 09:51:10;;;;;;;54.85;25.20;;;14.20;99.50;;;;;;4952791;28;20037;-77
2021/03/26 09:53:38;;;;;;;56.75;25.88;;;14.30;96.70;;;;;;4981536;28;20030;-77
2021/03/26 09:56:19;;;;;;;52.63;25.98;;;14.30;96.30;;;;;;4959412;28;20060;-77
2021/03/26 09:59:01;;;;;;;53.80;26.33;;;14.40;96.80;;;;;;4960714;28;20078;-76
2021/03/26 10:01:52;;;;;;;55.60;26.08;;;14.50;96.40;;;;;;4973898;28;20033;-76
2021/03/26 10:04:23;;;;;;;54.47;26.70;;;14.60;96.80;;;;;;4975818;28;20027;-76
2021/03/26 10:07:25;;;;;;;56.08;25.50;;;14.80;96.40;;;;;;4976644;28;20682;-77
2021/03/26 10:10:43;;;;;;;54.30;25.25;;;14.80;95.70;;;;;;4983643;28;20035;-77
2021/03/26 10:12:56;;;;;;;56.85;25.10;;;14.90;94.00;;;;;;4982752;28;20392;-77
2021/03/26 10:15:47;;;;;;;57.45;24.75;;;15.00;93.90;;;;;;4976050;28;20211;-77
2021/03/26 10:18:13;;;;;;;;;;;15.30;93.60;;;;;;4962385;28;20371;-78
2021/03/26 10:20:51;;;;;;;54.05;23.23;;;15.50;92.00;;;;;;4973349;28;19933;-76
2021/03/26 10:23:37;;;;;;;46.53;23.60;;;15.60;90.90;;;;;;4981783;28;20026;-76
2021/03/26 10:26:25;;;;;;;54.25;25.02;;;15.50;90.20;;;;;;4980326;28;20489;-76
2021/03/26 10:29:14;;;;;;;55.15;25.52;;;15.30;90.70;;;;;;4978930;28;20034;-76
2021/03/26 10:31:43;;;;;;;57.05;26.95;;;15.20;91.40;;;;;;4981024;28;20469;-76
2021/03/26 10:34:12;;;;;;;52.80;25.40;;;15.10;92.70;;;;;;4979852;28;20065;-76
2021/03/26 10:36:54;;;;;;;54.60;25.90;;;15.00;91.30;;;;;;4979259;28;20038;-76
2021/03/26 10:39:28;;;;;;;49.05;24.95;;;14.90;91.80;;;;;;4978746;28;20620;-76
2021/03/26 10:42:08;;;;;;;55.47;25.30;;;15.00;92.50;;;;;;4978519;28;20105;-76
2021/03/26 10:45:01;;;;;;;52.80;24.38;;;15.10;92.60;;;;;;4976608;28;20038;-76
2021/03/26 10:47:45;;;;;;;61.05;25.00;;;15.20;91.10;;;;;;4975239;28;20477;-76
2021/03/26 10:50:11;;;;;;;50.15;23.90;;;15.20;91.10;;;;;;4978837;28;20041;-76
2021/03/26 10:52:47;;;;;;;55.03;24.35;;;15.20;91.40;;;;;;4981038;28;20030;-76
2021/03/26 10:55:26;;;;;;;53.33;23.45;;;15.10;89.20;;;;;;4985044;28;20038;-76
2021/03/26 10:58:05;;;;;;;46.17;23.98;;;15.00;90.10;;;;;;4982216;28;20034;-76
2021/03/26 11:00:39;;;;;;;45.63;22.98;;;14.90;86.30;;;;;;4983856;28;20038;-76
2021/03/26 11:03:10;;;;;;;55.65;23.55;;;14.90;86.00;;;;;;4983528;28;20030;-76
2021/03/26 11:05:36;;;;;;;45.50;22.35;;;14.90;85.90;;;;;;4984263;28;20029;-76
2021/03/26 11:08:01;;;;;;;47.60;22.85;;;15.00;86.60;;;;;;4983899;28;20401;-76
2021/03/26 11:10:44;;;;;;;40.20;20.35;;;15.10;87.20;;;;;;4984162;28;20181;-75
2021/03/26 11:13:26;;;;;;;52.10;21.77;;;15.30;84.40;;;;;;4981406;28;20402;-76
2021/03/26 11:15:58;;;;;;;42.33;20.65;;;15.40;80.10;;;;;;4984949;28;20023;-76
2021/03/26 11:18:35;;;;;;;43.58;21.30;;;15.50;79.00;;;;;;4977558;28;20113;-75
2021/03/26 11:21:04;;;;;;;41.05;20.55;;;15.50;77.90;;;;;;4979676;28;20543;-75
2021/03/26 11:23:34;;;;;;;46.00;21.05;;;15.60;78.80;;;;;;4980594;28;20457;-75
2021/03/26 11:26:05;;;;;;;40.47;19.75;;;15.60;79.40;;;;;;4981050;28;20488;-75
2021/03/26 11:28:42;;;;;;;;;;;15.60;78.80;;;;;;4985829;28;20030;-76
2021/03/26 11:31:32;;;;;;;38.38;19.48;;;15.70;76.70;;;;;;4984301;28;19956;-76
2021/03/26 11:34:17;;;;;;;45.95;20.20;;;15.70;78.00;;;;;;4981389;28;20145;-76
2021/03/26 11:36:48;;;;;;;43.58;21.52;;;15.90;79.40;;;;;;4982139;28;20034;-74
2021/03/26 11:39:44;;;;;;;47.40;21.58;;;16.00;78.90;;;;;;4987671;28;20018;-78
2021/03/26 11:42:12;;;;;;;42.95;20.33;;;16.20;76.50;;;;;;4983898;28;20493;-74
2021/03/26 11:44:44;;;;;;;43.55;20.17;;;16.50;76.80;;;;;;4987495;28;20088;-77
2021/03/26 11:47:37;;;;;;;38.80;20.17;;;16.70;75.30;;;;;;4983006;28;20048;-75
2021/03/26 11:50:16;;;;;;;46.20;21.63;;;17.00;74.30;;;;;;4974507;28;20041;-77
2021/03/26 11:52:45;;;;;;;44.63;21.80;;;17.20;73.60;;;;;;4967076;28;20033;-77
2021/03/26 11:55:21;;;;;;;42.38;21.35;;;17.30;70.80;;;;;;4975926;28;20034;-76
2021/03/26 11:58:01;;;;;;;44.38;19.92;;;17.30;70.00;;;;;;4984123;28;20113;-80
2021/03/26 12:00:33;;;;;;;41.08;20.23;;;17.40;67.00;;;;;;4986225;28;20031;-77
2021/03/26 12:03:22;;;;;;;44.40;20.45;;;17.40;66.80;;;;;;4974570;28;20030;-77
2021/03/26 12:06:06;;;;;;;40.15;19.63;;;17.40;65.70;;;;;;4983768;28;20041;-76
2021/03/26 12:08:50;;;;;;;46.75;20.42;;;17.40;68.70;;;;;;4969848;28;20022;-77
2021/03/26 12:11:42;;;;;;;39.15;19.08;;;17.40;66.90;;;;;;4989553;28;20105;-77
2021/03/26 12:14:13;;;;;;;39.60;20.38;;;17.60;67.90;;;;;;4983038;28;20031;-77
2021/03/26 12:17:03;;;;;;;40.63;20.38;;;17.90;67.00;;;;;;4980948;28;20042;-78
2021/03/26 12:19:37;;;;;;;43.80;20.10;;;18.10;65.60;;;;;;4986246;28;24320;-77
2021/03/26 12:22:15;;;;;;;39.65;19.05;;;18.30;63.60;;;;;;4984180;28;20116;-78
2021/03/26 12:24:49;;;;;;;43.55;20.90;;;18.40;61.70;;;;;;4980522;28;20109;-80
2021/03/26 12:27:25;;;;;;;42.70;20.98;;;18.40;62.20;;;;;;4984755;28;20199;-85
2021/03/26 12:29:58;;;;;;;51.15;21.95;;;18.70;60.20;;;;;;4974282;28;20436;-81
2021/03/26 12:32:53;;;;;;;44.42;21.10;;;19.10;59.50;;;;;;4978458;28;20042;-81
2021/03/26 12:35:41;;;;;;;44.10;20.75;;;19.30;58.20;;;;;;4985892;28;20030;-78
2021/03/26 12:38:26;;;;;;;43.00;20.13;;;19.30;57.20;;;;;;4988360;28;20031;-80
2021/03/26 12:40:55;;;;;;;44.53;20.80;;;18.90;57.90;;;;;;4980559;28;20461;-77
2021/03/26 12:43:56;;;;;;;39.92;19.73;;;18.70;58.20;;;;;;4981491;28;20045;-77
2021/03/26 12:47:00;;;;;;;47.17;21.50;;;18.60;59.50;;;;;;4969492;28;20093;-77
2021/03/26 12:49:34;;;;;;;39.90;19.50;;;18.70;58.50;;;;;;4983079;28;20033;-77
2021/03/26 12:52:06;;;;;;;44.83;21.00;;;18.90;58.60;;;;;;4975866;28;20038;-77
2021/03/26 12:54:58;;;;;;;40.83;20.10;;;18.90;57.80;;;;;;4979133;28;20038;-78
2021/03/26 12:57:31;;;;;;;42.35;20.35;;;18.90;57.80;;;;;;4983832;28;20033;-78
2021/03/26 13:00:13;;;;;;;42.25;20.45;;;18.80;58.80;;;;;;4981550;28;20113;-78
2021/03/26 13:02:56;;;;;;;49.83;20.95;;;18.60;58.00;;;;;;4986197;28;20030;-76
2021/03/26 13:05:27;;;;;;;44.97;21.35;;;18.30;58.40;;;;;;4982593;28;20030;-76
2021/03/26 13:08:06;;;;;;;41.45;21.40;;;18.10;59.30;;;;;;4984306;28;20053;-77
2021/03/26 13:10:53;;;;;;;45.45;20.58;;;17.80;59.50;;;;;;4989299;28;20026;-76
2021/03/26 13:13:57;;;;;;;45.60;22.20;;;17.60;60.60;;;;;;4980211;28;20026;-77
2021/03/26 13:16:37;;;;;;;50.67;21.75;;;17.40;62.20;;;;;;4908085;28;20031;-77
2021/03/26 13:19:06;;;;;;;46.15;21.42;;;17.30;62.90;;;;;;4976118;28;20412;-77
2021/03/26 13:21:43;;;;;;;42.90;21.42;;;17.20;61.90;;;;;;4981902;28;20030;-77
2021/03/26 13:24:38;;;;;;;49.45;21.60;;;17.20;63.50;;;;;;4982023;28;20113;-79
2021/03/26 13:27:22;;;;;;;46.60;22.23;;;17.30;63.80;;;;;;4923033;28;20098;-77
2021/03/26 13:30:10;;;;;;;46.65;21.65;;;17.40;64.90;;;;;;4975962;28;20109;-76
2021/03/26 13:32:58;;;;;;;44.60;20.92;;;17.60;65.50;;;;;;4981192;28;20034;-76
2021/03/26 13:35:28;;;;;;;46.65;20.70;;;18.10;62.20;;;;;;4971012;28;20030;-76
2021/03/26 13:38:17;;;;;;;42.90;21.58;;;18.90;60.40;;;;;;4977481;28;20493;-76
2021/03/26 13:40:47;;;;;;;42.67;22.05;;;19.20;57.70;;;;;;4973900;28;20069;-76